sim
Sign-in with your pilot id or email,
or register
Callsign
Passwort

Schedule Details

Flight Number: EWG1803 (1)
Departure: Lanzarote Airport (GCRR) at 11:05
Arrival: Munich Airport (EDDM) at 15:25
Route: Eurowings Passenger Schedule. Enter filed route here before submitting Pirep.

Weather Information
Getting current METAR information for GCRR 260900Z 01016KT 350V050 9999 FEW015 26/19 Q1021
Getting current METAR information for EDDM 260850Z 26018KT 9999 -DZRA SCT020 BKN030 08/04 Q1000 TEMPO 26020G30KT

Schedule Frequency

Route Map